Data for 01/04/2010

Time Sea-Level Adjusted Pressure Absolute Pressure Temperature Relative Humidity Dew Point   
(mb) (inHg) (mb) (inHg) (C) (F) (%) (C) (F)
00:05 1025 30.27 854 25.22 -4.2 24.4 66 -9.6 14.7
00:10 1025 30.27 854 25.22 -4.1 24.6 66 -9.5 14.9
00:15 1025 30.27 854 25.22 -4.1 24.5 66 -9.7 14.6
00:20 1024 30.24 854 25.22 -3.9 25 66 -9.4 15
00:25 1024 30.24 854 25.22 -4 24.7 66 -9.5 14.9
00:30 1024 30.24 854 25.22 -3.9 24.9 66 -9.4 15.2
00:35 1024 30.24 854 25.22 -3.9 24.9 66 -9.5 15
00:40 1024 30.24 854 25.22 -3.8 25.1 65 -9.6 14.8
00:45 1024 30.24 854 25.22 -3.8 25.2 65 -9.4 15.1
00:50 1025 30.27 854 25.22 -3.9 25 66 -9.3 15.2
00:55 1025 30.27 854 25.22 -3.8 25.2 65 -9.4 15
01:00 1025 30.27 854 25.22 -3.8 25.2 66 -9.4 15.2
01:05 1024 30.24 854 25.22 -3.7 25.3 65 -9.4 15
01:10 1024 30.24 854 25.22 -3.5 25.6 64 -9.4 15
01:15 1024 30.24 854 25.22 -3.5 25.7 64 -9.3 15.2
01:20 1024 30.24 854 25.22 -3.6 25.5 64 -9.4 15.1
01:25 1024 30.24 854 25.22 -3.6 25.6 64 -9.4 15.1
01:30 1024 30.24 854 25.22 -3.6 25.4 65 -9.4 15.1
01:35 1025 30.27 854 25.22 -3.6 25.5 65 -9.3 15.2
01:40 1025 30.27 854 25.22 -3.7 25.3 65 -9.5 14.9
01:45 1025 30.27 854 25.22 -3.6 25.6 64 -9.5 15
01:50 1025 30.27 854 25.22 -3.4 25.8 63 -9.5 15
01:55 1025 30.27 854 25.22 -3.4 25.9 64 -9.3 15.2
02:00 1025 30.27 854 25.22 -3.5 25.7 64 -9.3 15.3
02:05 1024 30.24 854 25.22 -3.6 25.4 65 -9.3 15.2
02:10 1024 30.24 854 25.22 -3.5 25.7 64 -9.4 15.1
02:15 1025 30.27 854 25.22 -3.5 25.8 64 -9.3 15.3
02:20 1025 30.27 854 25.22 -3.5 25.7 64 -9.3 15.3
02:25 1025 30.27 854 25.22 -3.5 25.6 65 -9.2 15.5
02:30 1025 30.27 854 25.22 -3.9 25 66 -9.4 15.2
02:35 1025 30.27 854 25.22 -3.8 25.1 65 -9.5 14.9
02:40 1025 30.27 854 25.22 -3.6 25.5 63 -9.7 14.5
02:45 1025 30.27 854 25.22 -3.6 25.6 64 -9.5 14.9
02:50 1025 30.27 854 25.22 -3.6 25.4 64 -9.5 14.9
02:55 1025 30.27 854 25.22 -3.9 25 66 -9.4 15.1
03:00 1025 30.27 854 25.22 -4.2 24.5 68 -9.3 15.3
03:05 1024 30.24 854 25.22 -4.1 24.6 67 -9.5 15
03:10 1024 30.24 854 25.22 -3.9 25.1 65 -9.6 14.8
03:15 1025 30.27 854 25.22 -3.6 25.6 65 -9.3 15.3
03:20 1024 30.24 854 25.22 -3.9 25 68 -9 15.7
03:25 1024 30.24 854 25.22 -4.3 24.2 69 -9.2 15.5
03:30 1024 30.24 854 25.22 -4.3 24.2 69 -9.2 15.5
03:35 1024 30.24 854 25.22 -4.1 24.7 67 -9.2 15.4
03:40 1024 30.24 854 25.22 -3.8 25.2 65 -9.4 15.1
03:45 1024 30.24 854 25.22 -3.6 25.6 67 -8.9 15.9
03:50 1024 30.24 854 25.22 -3.9 25.1 68 -9 15.8
03:55 1024 30.24 854 25.22 -4 24.8 68 -9 15.7
04:00 1024 30.24 854 25.22 -4.1 24.7 67 -9.3 15.3
04:05 1024 30.24 854 25.22 -3.9 24.9 68 -9 15.8
04:10 1024 30.24 854 25.22 -3.8 25.2 67 -9.1 15.7
04:15 1024 30.24 854 25.22 -3.8 25.2 66 -9.3 15.3
04:20 1024 30.24 854 25.22 -3.7 25.4 66 -9.1 15.6
04:25 1024 30.24 854 25.22 -3.8 25.1 67 -9.1 15.6
04:30 1024 30.24 854 25.22 -4 24.8 67 -9.2 15.4
04:35 1024 30.24 854 25.22 -4 24.9 67 -9.2 15.4
04:40 1024 30.24 854 25.22 -3.8 25.1 66 -9.3 15.3
04:45 1024 30.24 854 25.22 -3.6 25.4 66 -9.1 15.6
04:50 1024 30.24 853 25.19 -3.5 25.7 65 -9.1 15.6
04:55 1024 30.24 853 25.19 -3.5 25.7 65 -9.2 15.5
05:00 1024 30.24 853 25.19 -3.5 25.8 65 -9.2 15.5
05:05 1024 30.24 853 25.19 -3.5 25.7 65 -9.2 15.5
05:10 1024 30.24 853 25.19 -3.5 25.7 66 -8.9 16
05:15 1024 30.24 853 25.19 -3.5 25.6 68 -8.6 16.5
05:20 1024 30.24 853 25.19 -3.7 25.4 69 -8.6 16.5
05:25 1024 30.24 853 25.19 -4.1 24.7 68 -9.2 15.4
05:30 1024 30.24 853 25.19 -3.9 25 68 -9 15.8
05:35 1024 30.24 853 25.19 -3.9 25 68 -9 15.9
05:40 1024 30.24 853 25.19 -3.8 25.2 68 -8.9 16
05:45 1024 30.24 853 25.19 -3.7 25.3 68 -8.8 16.1
05:50 1024 30.24 853 25.19 -3.7 25.3 68 -8.9 16
05:55 1024 30.24 853 25.19 -3.6 25.5 67 -8.8 16.1
06:00 1024 30.24 853 25.19 -3.4 25.9 67 -8.7 16.3
06:05 1024 30.24 853 25.19 -3.5 25.8 66 -8.9 16
06:10 1024 30.24 853 25.19 -3.6 25.6 67 -8.7 16.3
06:15 1024 30.24 853 25.19 -3.7 25.3 67 -9 15.8
06:20 1024 30.24 853 25.19 -3.8 25.2 69 -8.7 16.3
06:25 1024 30.24 853 25.19 -4 24.8 72 -8.4 16.9
06:30 1024 30.24 853 25.19 -4 24.8 72 -8.3 17.1
06:35 1024 30.24 853 25.19 -3.9 25.1 72 -8.2 17.2
06:40 1024 30.24 853 25.19 -3.7 25.4 68 -8.8 16.2
06:45 1024 30.24 853 25.19 -3.6 25.5 70 -8.3 17.1
06:50 1024 30.24 853 25.19 -3.7 25.3 69 -8.6 16.6
06:55 1024 30.24 853 25.19 -3.7 25.3 69 -8.6 16.6
07:00 1024 30.24 853 25.19 -3.5 25.8 66 -9 15.8
07:05 1024 30.24 853 25.19 -3.2 26.2 66 -8.6 16.4
07:10 1024 30.24 853 25.19 -3.1 26.3 65 -8.9 16.1
07:15 1024 30.24 853 25.19 -3 26.7 65 -8.6 16.6
07:20 1024 30.24 853 25.19 -3.1 26.4 70 -7.9 17.8
07:25 1024 30.24 853 25.19 -3.3 26.1 67 -8.5 16.7
07:30 1024 30.24 853 25.19 -3.3 26.1 70 -8 17.5
07:35 1024 30.24 853 25.19 -3.3 26.2 70 -8 17.6
07:40 1024 30.24 853 25.19 -3.3 26 71 -7.8 17.9
07:45 1023 30.21 853 25.19 -3.4 25.9 72 -7.8 18
07:50 1023 30.21 853 25.19 -3.3 26 74 -7.4 18.6
07:55 1023 30.21 853 25.19 -3.7 25.4 75 -7.4 18.6
08:00 1023 30.21 853 25.19 -3.7 25.4 74 -7.7 18.1
08:05 1023 30.21 853 25.19 -3.7 25.3 74 -7.8 18
08:10 1023 30.21 853 25.19 -3.7 25.4 73 -7.8 18
08:15 1023 30.21 853 25.19 -3.4 25.8 71 -8 17.7
08:20 1023 30.21 853 25.19 -3.4 25.9 70 -8.1 17.5
08:25 1023 30.21 853 25.19 -3.3 26 71 -7.9 17.8
08:30 1023 30.21 853 25.19 -3.2 26.3 71 -7.6 18.2
08:35 1024 30.24 853 25.19 -2.9 26.7 71 -7.4 18.7
08:40 1024 30.24 853 25.19 -2.8 27 72 -7.1 19.2
08:45 1024 30.24 853 25.19 -2.7 27.1 72 -7.1 19.3
08:50 1024 30.24 853 25.19 -2.7 27.2 72 -7.1 19.2
08:55 1024 30.24 853 25.19 -2.5 27.4 70 -7.4 18.8
09:00 1024 30.24 853 25.19 -2.4 27.6 70 -7.1 19.2
09:05 1024 30.24 853 25.19 -2.6 27.4 70 -7.4 18.7
09:10 1024 30.24 853 25.19 -2.6 27.3 72 -7.1 19.3
09:15 1024 30.24 853 25.19 -2.7 27.1 73 -7 19.5
09:20 1023 30.21 853 25.19 -2.9 26.8 73 -7.2 19.1
09:25 1023 30.21 853 25.19 -3 26.6 73 -7.2 19.1
09:30 1023 30.21 853 25.19 -2.8 27 73 -7 19.4
09:35 1023 30.21 853 25.19 -2.6 27.4 71 -7.1 19.1
09:40 1023 30.21 853 25.19 -2.6 27.3 71 -7.3 18.9
09:45 1023 30.21 852 25.16 -2.5 27.6 68 -7.5 18.5
09:50 1023 30.21 852 25.16 -2.3 27.8 69 -7.3 18.8
09:55 1023 30.21 852 25.16 -2 28.4 69 -6.9 19.5
10:00 1023 30.21 852 25.16 -2.1 28.1 68 -7.2 19
10:05 1023 30.21 852 25.16 -2.4 27.7 69 -7.4 18.7
10:10 1023 30.21 852 25.16 -2.2 28 67 -7.5 18.5
10:15 1023 30.21 852 25.16 -2 28.3 66 -7.6 18.4
10:20 1023 30.21 852 25.16 -2 28.4 66 -7.4 18.6
10:25 1023 30.21 852 25.16 -1.9 28.6 64 -7.8 18
10:30 1023 30.21 852 25.16 -1.8 28.8 64 -7.7 18.1
10:35 1023 30.21 852 25.16 -1.6 29.2 63 -7.7 18.2
10:40 1023 30.21 852 25.16 -1.4 29.5 62 -7.8 17.9
10:45 1023 30.21 852 25.16 -1.3 29.7 64 -7.2 19.1
10:50 1023 30.21 852 25.16 -1.4 29.4 64 -7.3 18.8
10:55 1023 30.21 852 25.16 -1.5 29.3 65 -7.3 18.8
11:00 1023 30.21 852 25.16 -1.4 29.5 64 -7.4 18.7
11:05 1023 30.21 852 25.16 -1.5 29.4 65 -7.3 18.9
11:10 1023 30.21 852 25.16 -1.6 29.1 65 -7.3 18.8
11:15 1022 30.18 852 25.16 -1.6 29.1 65 -7.3 18.9
11:20 1022 30.18 852 25.16 -1.4 29.6 65 -7.1 19.3
11:25 1022 30.18 852 25.16 -1 30.2 63 -7.1 19.2
11:30 1022 30.18 852 25.16 -0.5 31 60 -7.3 18.8
11:35 1022 30.18 852 25.16 -0.1 31.8 58 -7.3 18.9
11:40 1022 30.18 852 25.16 0.2 32.4 56 -7.5 18.5
11:45 1022 30.18 851 25.13 0.2 32.4 55 -7.7 18.1
11:50 1022 30.18 851 25.13 0.2 32.4 58 -7.2 19.1
11:55 1022 30.18 851 25.13 0.4 32.8 56 -7.3 18.8
12:00 1022 30.18 851 25.13 0.7 33.3 55 -7.3 18.8
12:05 1022 30.18 851 25.13 0.8 33.4 56 -7.1 19.3
12:10 1022 30.18 851 25.13 0.7 33.3 56 -7 19.4
12:15 1022 30.18 851 25.13 0.7 33.2 55 -7.3 18.9
12:20 1022 30.18 851 25.13 0.3 32.5 58 -7.1 19.3
12:25 1022 30.18 851 25.13 0.5 32.9 57 -7.1 19.3
12:30 1022 30.18 851 25.13 0.5 33 57 -7 19.5
12:35 1022 30.18 851 25.13 0.5 33 58 -6.8 19.8
12:40 1022 30.18 851 25.13 0.3 32.6 61 -6.4 20.5
12:45 1022 30.18 851 25.13 0 32.1 65 -5.7 21.8
12:50 1021 30.15 851 25.13 -0.5 31.1 70 -5.2 22.6
12:55 1021 30.15 851 25.13 -1 30.2 74 -5 22.9
13:00 1021 30.15 851 25.13 -1.2 29.9 78 -4.5 24
13:05 1021 30.15 850 25.1 -1.3 29.7 79 -4.4 24.1
13:10 1021 30.15 850 25.1 -1.2 29.8 80 -4.3 24.2
13:15 1021 30.15 850 25.1 -1.3 29.7 79 -4.5 23.9
13:20 1021 30.15 850 25.1 -1.2 29.8 77 -4.7 23.5
13:25 1021 30.15 850 25.1 -1.4 29.5 81 -4.2 24.4
13:30 1021 30.15 850 25.1 -1 30.2 79 -4.3 24.3
13:35 1021 30.15 850 25.1 -0.9 30.5 77 -4.4 24.1
13:40 1021 30.15 850 25.1 -1.1 30 81 -3.9 25
13:45 1021 30.15 850 25.1 -1.3 29.7 82 -4 24.8
13:50 1021 30.15 850 25.1 -1.6 29 83 -4.2 24.4
13:55 1021 30.15 850 25.1 -1.8 28.8 84 -4.2 24.5
14:00 1021 30.15 850 25.1 -1.8 28.8 84 -4.1 24.6
14:05 1021 30.15 850 25.1 -1.7 28.9 85 -4 24.8
14:10 1021 30.15 850 25.1 -1.8 28.8 85 -3.9 25
14:15 1021 30.15 850 25.1 -1.6 29.1 84 -3.9 24.9
14:20 1021 30.15 850 25.1 -1.2 29.8 83 -3.8 25.2
14:25 1020 30.12 850 25.1 -1.1 30 82 -3.8 25.2
14:30 1020 30.12 850 25.1 -1.1 30.1 82 -3.8 25.1
14:35 1020 30.12 850 25.1 -1.1 30.1 82 -3.7 25.3
14:40 1020 30.12 850 25.1 -0.9 30.4 80 -3.8 25.1
14:45 1020 30.12 850 25.1 -1 30.2 81 -3.8 25.1
14:50 1020 30.12 850 25.1 -1.2 29.9 81 -4 24.8
14:55 1020 30.12 850 25.1 -1.3 29.6 82 -3.9 24.9
15:00 1020 30.12 850 25.1 -1.1 30 81 -4 24.8
15:05 1020 30.12 849 25.07 -0.9 30.4 79 -4 24.8
15:10 1020 30.12 849 25.07 -1 30.2 80 -4 24.8
15:15 1020 30.12 849 25.07 -1.2 29.8 83 -3.7 25.4
15:20 1020 30.12 849 25.07 -1.4 29.5 85 -3.6 25.4
15:25 1020 30.12 849 25.07 -1.5 29.3 85 -3.8 25.2
15:30 1020 30.12 849 25.07 -1.6 29.1 85 -3.7 25.3
15:35 1020 30.12 849 25.07 -1.5 29.2 85 -3.7 25.4
15:40 1020 30.12 849 25.07 -1.5 29.3 85 -3.6 25.5
15:45 1020 30.12 849 25.07 -1.5 29.2 86 -3.6 25.5
15:50 1020 30.12 849 25.07 -1.8 28.8 87 -3.7 25.3
15:55 1020 30.12 849 25.07 -1.7 29 86 -3.7 25.3
16:00 1020 30.12 849 25.07 -1.4 29.5 84 -3.7 25.4
16:05 1020 30.12 849 25.07 -1.4 29.4 85 -3.6 25.6
16:10 1020 30.12 849 25.07 -1.5 29.3 85 -3.7 25.3
16:15 1020 30.12 849 25.07 -1.6 29.1 86 -3.7 25.4
16:20 1020 30.12 849 25.07 -1.6 29.2 85 -3.7 25.3
16:25 1020 30.12 849 25.07 -1.5 29.3 85 -3.7 25.4
16:30 1020 30.12 849 25.07 -1.6 29.2 86 -3.6 25.4
16:35 1020 30.12 849 25.07 -1.6 29.2 86 -3.6 25.5
16:40 1020 30.12 849 25.07 -1.6 29.2 86 -3.6 25.5
16:45 1020 30.12 849 25.07 -1.4 29.4 85 -3.6 25.5
16:50 1020 30.12 849 25.07 -1.3 29.6 85 -3.6 25.6
16:55 1020 30.12 849 25.07 -1.2 29.8 84 -3.6 25.6
17:00 1020 30.12 849 25.07 -1.3 29.7 85 -3.5 25.6
17:05 1020 30.12 849 25.07 -1.4 29.4 85 -3.6 25.5
17:10 1020 30.12 849 25.07 -1.6 29.2 86 -3.7 25.4
17:15 1020 30.12 849 25.07 -1.7 28.9 87 -3.7 25.4
17:20 1020 30.12 849 25.07 -2 28.5 87 -3.8 25.1
17:25 1020 30.12 849 25.07 -2 28.3 87 -3.9 24.9
17:30 1019 30.09 849 25.07 -2.2 28 88 -3.9 24.9
17:35 1019 30.09 849 25.07 -2.2 28.1 88 -4 24.8
17:40 1019 30.09 849 25.07 -2.1 28.2 87 -4 24.9
17:45 1019 30.09 849 25.07 -2.1 28.2 87 -4 24.8
17:50 1019 30.09 849 25.07 -2.1 28.2 87 -4 24.7
17:55 1019 30.09 849 25.07 -2.2 28.1 87 -4.1 24.7
18:00 1019 30.09 849 25.07 -2.3 27.9 87 -4.1 24.5
18:05 1019 30.09 849 25.07 -2.4 27.7 88 -4.1 24.5
18:10 1019 30.09 848 25.04 -2.5 27.5 88 -4.2 24.5
18:15 1019 30.09 849 25.07 -2.6 27.3 89 -4.2 24.5
18:20 1019 30.09 849 25.07 -2.7 27.2 89 -4.3 24.3
18:25 1019 30.09 849 25.07 -2.7 27.2 89 -4.3 24.3
18:30 1019 30.09 849 25.07 -2.8 27 89 -4.3 24.2
18:35 1019 30.09 848 25.04 -2.9 26.9 90 -4.3 24.2
18:40 1019 30.09 848 25.04 -2.9 26.8 90 -4.3 24.2
18:45 1019 30.09 848 25.04 -2.9 26.8 90 -4.4 24.1
18:50 1019 30.09 848 25.04 -2.9 26.7 90 -4.4 24.2
18:55 1019 30.09 848 25.04 -3 26.7 90 -4.3 24.2
19:00 1019 30.09 848 25.04 -3 26.7 90 -4.4 24.1
19:05 1019 30.09 848 25.04 -3.1 26.5 91 -4.4 24.1
19:10 1019 30.09 848 25.04 -3.1 26.4 91 -4.4 24.1
19:15 1019 30.09 848 25.04 -3.2 26.3 92 -4.3 24.3
19:20 1019 30.09 848 25.04 -3.2 26.3 92 -4.3 24.3
19:25 1019 30.09 848 25.04 -3.2 26.2 91 -4.4 24
19:30 1019 30.09 848 25.04 -3.3 26 92 -4.4 24
19:35 1019 30.09 848 25.04 -3.3 26 92 -4.4 24
19:40 1019 30.09 848 25.04 -3.3 26.1 93 -4.3 24.3
19:45 1019 30.09 848 25.04 -3.1 26.4 91 -4.3 24.2
19:50 1019 30.09 848 25.04 -3 26.6 90 -4.3 24.2
19:55 1018 30.06 848 25.04 -3 26.6 91 -4.4 24.2
20:00 1018 30.06 848 25.04 -3 26.5 90 -4.5 23.9
20:05 1018 30.06 848 25.04 -3 26.6 91 -4.3 24.3
20:10 1018 30.06 848 25.04 -2.9 26.8 89 -4.4 24.1
20:15 1018 30.06 848 25.04 -2.7 27.2 88 -4.4 24
20:20 1018 30.06 848 25.04 -2.7 27.1 89 -4.3 24.3
20:25 1018 30.06 848 25.04 -2.7 27.2 89 -4.2 24.4
20:30 1018 30.06 848 25.04 -2.6 27.4 87 -4.5 23.9
20:35 1018 30.06 848 25.04 -2.9 26.9 89 -4.5 23.9
20:40 1018 30.06 847 25.01 -3.1 26.4 92 -4.2 24.4
20:45 1018 30.06 847 25.01 -2.8 26.9 91 -4 24.8
20:50 1018 30.06 847 25.01 -2.5 27.5 89 -4.1 24.7
20:55 1018 30.06 847 25.01 -2.2 28 88 -4 24.8
21:00 1018 30.06 847 25.01 -2.3 27.9 89 -3.9 24.9
21:05 1018 30.06 847 25.01 -2.3 27.9 89 -3.9 24.9
21:10 1018 30.06 847 25.01 -2.4 27.7 87 -4.3 24.3
21:15 1018 30.06 847 25.01 -2.7 27.1 89 -4.2 24.4
21:20 1018 30.06 847 25.01 -2.6 27.3 92 -3.7 25.3
21:25 1018 30.06 847 25.01 -2.4 27.7 90 -3.8 25.2
21:30 1018 30.06 847 25.01 -2.3 27.9 90 -3.7 25.3
21:35 1018 30.06 847 25.01 -2.3 27.8 90 -3.7 25.3
21:40 1018 30.06 847 25.01 -2.4 27.6 90 -3.8 25.2
21:45 1018 30.06 847 25.01 -2.4 27.6 91 -3.8 25.2
21:50 1018 30.06 847 25.01 -2.1 28.1 91 -3.5 25.8
21:55 1018 30.06 847 25.01 -1.4 29.5 87 -3.3 26.1
22:00 1018 30.06 847 25.01 -1.5 29.3 87 -3.4 25.9
22:05 1018 30.06 847 25.01 -1.6 29.2 87 -3.4 25.8
22:10 1018 30.06 847 25.01 -1.5 29.2 86 -3.5 25.6
22:15 1018 30.06 847 25.01 -1.2 29.8 86 -3.3 26.1
22:20 1018 30.06 847 25.01 -1.3 29.7 85 -3.4 25.8
22:25 1018 30.06 847 25.01 -1 30.2 85 -3.2 26.2
22:30 1018 30.06 847 25.01 -0.7 30.7 83 -3.2 26.2
22:35 1018 30.06 847 25.01 -0.6 31 84 -3 26.7
22:40 1018 30.06 847 25.01 -0.8 30.5 87 -2.7 27.2
22:45 1018 30.06 847 25.01 -0.9 30.4 88 -2.6 27.3
22:50 1018 30.06 847 25.01 -1.2 29.8 91 -2.6 27.4
22:55 1018 30.06 847 25.01 -1.4 29.4 93 -2.4 27.6
23:00 1018 30.06 847 25.01 -1.4 29.5 93 -2.3 27.8
23:05 1018 30.06 847 25.01 -1.5 29.3 94 -2.4 27.7
23:10 1018 30.06 847 25.01 -2 28.5 95 -2.7 27.1
23:15 1018 30.06 847 25.01 -2.4 27.8 96 -3 26.7
23:20 1018 30.06 847 25.01 -2.4 27.6 96 -3 26.7
23:25 1018 30.06 847 25.01 -2.4 27.6 97 -2.9 26.8
23:30 1017 30.03 847 25.01 -2.4 27.8 97 -2.8 27
23:35 1017 30.03 847 25.01 -2.2 28.1 97 -2.5 27.5
23:40 1017 30.03 846 24.98 -1.9 28.6 98 -2.2 28
23:45 1017 30.03 846 24.98 -1.6 29.1 98 -1.9 28.6
23:50 1017 30.03 846 24.98 -1.3 29.6 98 -1.7 29
23:55 1017 30.03 846 24.98 -1.2 29.9 98 -1.5 29.3
24:00 1017 30.03 846 24.98 -1 30.1 97 -1.4 29.5